Amherst, Wisconsin
Current Conditions -  °F | °C
As of 5:55 PM on Friday 24 Oct 2014 (Local Time) from KSTE Reporting Station
Overcast Overcast  
Wind Chill: 13°   Ceiling: 3000
Heat Index: 13°   Visibility: 10mi
Dew Point: 10°   Wind: 5mph
Humidity: 81%   Direction: 170°S
Pressure: 29.9"   Gusts: NA
Location:  44.45°N, 89.28°W
Report Text: KSTE 242255Z AUTO 17004KT 10SM OVC030 13/10 A2990 RMK AO2 T01280096
Loading
Personal Weather Stations






























Interactive Weather Map
Tropical Storm Tracking
New forecast layout! Learn more

10-Day Weather Forecast

Advertisements
Track Severe Weather on mobile